createdAt,value
2022-09-06T00:00:15.579Z,3.45
2022-09-06T00:02:42.093Z,3.76
2022-09-06T00:05:08.586Z,3.82
2022-09-06T00:07:34.930Z,3.72
2022-09-06T00:10:01.312Z,3.42
2022-09-06T00:12:27.752Z,3.57
2022-09-06T00:14:54.146Z,3.43
2022-09-06T00:17:20.521Z,3.43
2022-09-06T00:19:46.902Z,3.41
2022-09-06T00:22:13.247Z,3.52
2022-09-06T00:24:39.618Z,3.33
2022-09-06T00:27:05.992Z,3.51
2022-09-06T00:29:32.366Z,3.32
2022-09-06T00:31:58.741Z,3.43
2022-09-06T00:34:25.094Z,3.29
2022-09-06T00:36:51.455Z,3.49
2022-09-06T00:39:17.861Z,3.47
2022-09-06T00:41:44.206Z,3.49
2022-09-06T00:44:10.569Z,3.12
2022-09-06T00:46:37.006Z,3.14
2022-09-06T00:49:03.437Z,3.39
2022-09-06T00:51:29.818Z,3.56
2022-09-06T00:53:56.167Z,3.24
2022-09-06T00:56:22.530Z,3.27
2022-09-06T00:58:48.920Z,3.24
2022-09-06T01:01:15.409Z,3.31
2022-09-06T01:03:41.834Z,3.14
2022-09-06T01:06:08.226Z,3.24
2022-09-06T01:08:34.588Z,3.12
2022-09-06T01:11:00.962Z,3.13
2022-09-06T01:13:27.339Z,3.18
2022-09-06T01:15:53.770Z,3.64
2022-09-06T01:18:20.222Z,3.53
2022-09-06T01:20:46.580Z,3.30
2022-09-06T01:23:12.941Z,3.35
2022-09-06T01:25:39.304Z,3.34
2022-09-06T01:28:05.682Z,3.35
2022-09-06T01:30:32.068Z,2.90
2022-09-06T01:32:58.424Z,3.41
2022-09-06T01:35:24.811Z,3.29
2022-09-06T01:37:51.182Z,3.02
2022-09-06T01:40:17.574Z,3.19
2022-09-06T01:42:43.956Z,3.02
2022-09-06T01:45:10.329Z,3.07
2022-09-06T01:47:36.688Z,3.07
2022-09-06T01:50:03.127Z,3.44
2022-09-06T01:52:29.485Z,3.34
2022-09-06T01:54:55.844Z,3.20
2022-09-06T01:57:22.182Z,3.12
2022-09-06T01:59:48.537Z,2.92
2022-09-06T02:02:14.953Z,2.94
2022-09-06T02:04:41.369Z,3.13
2022-09-06T02:07:07.851Z,3.28
2022-09-06T02:09:34.210Z,3.06
2022-09-06T02:12:00.562Z,2.89
2022-09-06T02:14:26.923Z,3.12
2022-09-06T02:16:53.336Z,3.24
2022-09-06T02:19:19.725Z,3.00
2022-09-06T02:21:46.086Z,2.98
2022-09-06T02:24:12.461Z,3.09
2022-09-06T02:26:38.832Z,2.94
2022-09-06T02:29:05.208Z,3.06
2022-09-06T02:31:31.577Z,3.09
2022-09-06T02:33:57.926Z,2.63
2022-09-06T02:36:24.300Z,3.16
2022-09-06T02:38:50.678Z,2.97
2022-09-06T02:41:17.055Z,2.99
2022-09-06T02:43:43.419Z,3.05
2022-09-06T02:46:09.850Z,3.40
2022-09-06T02:48:36.303Z,3.36
2022-09-06T02:51:02.678Z,3.09
2022-09-06T02:53:29.025Z,2.93
2022-09-06T02:55:55.407Z,2.73
2022-09-06T02:58:21.768Z,3.03
2022-09-06T03:00:48.176Z,2.95
2022-09-06T03:03:14.615Z,2.83
2022-09-06T03:05:40.962Z,2.70
2022-09-06T03:08:07.322Z,3.08
2022-09-06T03:10:33.672Z,2.96
2022-09-06T03:13:00.025Z,3.13
2022-09-06T03:15:26.415Z,2.89
2022-09-06T03:17:52.767Z,2.96
2022-09-06T03:20:19.150Z,2.96
2022-09-06T03:22:45.524Z,3.44
2022-09-06T03:25:11.883Z,2.75
2022-09-06T03:27:38.249Z,2.82
2022-09-06T03:30:04.602Z,3.00
2022-09-06T03:32:30.985Z,2.96
2022-09-06T03:34:57.353Z,2.96
2022-09-06T03:37:23.715Z,2.81
2022-09-06T03:39:50.142Z,2.94
2022-09-06T03:42:16.859Z,3.09
2022-09-06T03:44:43.208Z,3.30
2022-09-06T03:47:09.687Z,3.02
2022-09-06T03:49:36.036Z,3.28
2022-09-06T03:52:02.383Z,2.90
2022-09-06T03:54:28.741Z,3.14
2022-09-06T03:56:55.103Z,2.98
2022-09-06T03:59:21.490Z,3.04
2022-09-06T04:01:47.883Z,3.02
2022-09-06T04:04:14.289Z,3.03
2022-09-06T04:06:40.649Z,2.91
2022-09-06T04:09:07.007Z,3.25
2022-09-06T04:11:33.433Z,2.75
2022-09-06T04:13:59.803Z,3.16
2022-09-06T04:16:26.247Z,3.24
2022-09-06T04:18:52.638Z,3.39
2022-09-06T04:21:19.041Z,3.36
2022-09-06T04:23:45.398Z,2.85
2022-09-06T04:26:11.758Z,3.21
2022-09-06T04:28:38.112Z,2.88
2022-09-06T04:31:05.370Z,2.74
2022-09-06T04:33:31.955Z,3.05
2022-09-06T04:35:58.311Z,3.21
2022-09-06T04:38:24.679Z,3.02
2022-09-06T04:40:51.032Z,2.95
2022-09-06T04:43:17.395Z,2.71
2022-09-06T04:45:43.807Z,2.85
2022-09-06T04:48:10.196Z,3.01
2022-09-06T04:50:36.548Z,3.10
2022-09-06T04:53:02.979Z,2.91
2022-09-06T04:55:29.414Z,3.09
2022-09-06T04:57:55.773Z,3.15
2022-09-06T05:00:22.134Z,3.16
2022-09-06T05:02:48.477Z,3.15
2022-09-06T05:05:14.849Z,2.76
2022-09-06T05:07:42.337Z,3.43
2022-09-06T05:10:08.736Z,21.82
2022-09-06T05:12:35.102Z,27.51
2022-09-06T05:15:01.484Z,17.20
2022-09-06T05:17:27.833Z,15.33
2022-09-06T05:19:54.205Z,15.54
2022-09-06T05:22:20.589Z,14.39
2022-09-06T05:24:46.979Z,14.66
2022-09-06T05:27:13.340Z,13.70
2022-09-06T05:29:39.702Z,13.44
2022-09-06T05:32:06.163Z,12.82
2022-09-06T05:34:32.540Z,12.50
2022-09-06T05:36:58.898Z,12.58
2022-09-06T05:39:25.301Z,11.74
2022-09-06T05:41:51.683Z,11.39
2022-09-06T05:44:18.067Z,11.34
2022-09-06T05:46:44.425Z,11.40
2022-09-06T05:49:10.787Z,11.15
2022-09-06T05:51:37.149Z,10.43
2022-09-06T05:54:03.495Z,10.70
2022-09-06T05:56:29.869Z,10.53
2022-09-06T05:58:56.239Z,11.71
2022-09-06T06:01:22.632Z,11.58
2022-09-06T06:03:49.038Z,10.92
2022-09-06T06:06:15.393Z,9.99
2022-09-06T06:08:41.737Z,10.39
2022-09-06T06:11:08.106Z,9.87
2022-09-06T06:13:34.466Z,9.73
2022-09-06T06:16:00.899Z,9.18
2022-09-06T06:18:27.339Z,8.93
2022-09-06T06:20:53.717Z,9.22
2022-09-06T06:23:20.058Z,9.00
2022-09-06T06:25:46.411Z,8.55
2022-09-06T06:28:12.783Z,8.46
2022-09-06T06:30:39.163Z,8.29
2022-09-06T06:33:05.501Z,8.45
2022-09-06T06:35:31.856Z,8.64
2022-09-06T06:37:58.219Z,8.04
2022-09-06T06:40:24.586Z,7.77
2022-09-06T06:42:50.994Z,7.63
2022-09-06T06:45:17.373Z,7.50
2022-09-06T06:47:43.739Z,8.69
2022-09-06T06:50:10.087Z,8.29
2022-09-06T06:52:36.470Z,8.90
2022-09-06T06:55:02.876Z,8.75
2022-09-06T06:57:29.228Z,8.43
2022-09-06T06:59:55.582Z,8.96
2022-09-06T07:02:21.968Z,8.51
2022-09-06T07:04:48.371Z,8.33
2022-09-06T07:07:30.226Z,8.42
2022-09-06T07:12:43.205Z,7.19
2022-09-06T07:15:09.559Z,7.68
2022-09-06T07:17:35.924Z,7.20
2022-09-06T07:20:17.646Z,7.33
2022-09-06T07:22:44.063Z,7.32
2022-09-06T07:25:10.425Z,6.78
2022-09-06T07:30:10.183Z,7.06
2022-09-06T07:32:36.536Z,6.60
2022-09-06T07:35:02.928Z,6.95
2022-09-06T07:37:29.293Z,6.53
2022-09-06T07:39:55.690Z,6.67
2022-09-06T07:42:22.117Z,6.90
2022-09-06T07:44:48.482Z,6.56
2022-09-06T07:55:33.882Z,5.80
2022-09-06T07:58:00.224Z,5.70
2022-09-06T08:00:26.572Z,5.65
2022-09-06T08:02:52.946Z,5.78
2022-09-06T08:10:51.986Z,5.28
2022-09-06T08:13:18.345Z,5.80
2022-09-06T08:15:44.699Z,5.49
2022-09-06T08:18:11.072Z,5.42
2022-09-06T08:20:37.590Z,5.22
2022-09-06T08:23:03.951Z,5.46
2022-09-06T08:25:30.311Z,5.68
2022-09-06T08:27:56.676Z,5.31
2022-09-06T08:30:23.047Z,5.02
2022-09-06T08:32:49.426Z,5.20
2022-09-06T08:35:15.779Z,5.35
2022-09-06T08:37:42.139Z,5.18
2022-09-06T08:40:08.586Z,5.36
2022-09-06T08:42:35.001Z,4.88
2022-09-06T08:45:01.368Z,4.73
2022-09-06T08:47:27.832Z,4.95
2022-09-06T08:49:54.227Z,4.79
2022-09-06T08:52:20.590Z,4.64
2022-09-06T08:54:46.943Z,4.52
2022-09-06T08:57:13.302Z,4.80
2022-09-06T08:59:39.645Z,4.63
2022-09-06T09:02:06.058Z,4.43
2022-09-06T09:04:32.437Z,4.41
2022-09-06T09:06:58.801Z,4.17
2022-09-06T09:09:25.273Z,4.32
2022-09-06T09:11:51.638Z,4.05
2022-09-06T09:14:17.995Z,4.34
2022-09-06T09:16:44.408Z,4.13
2022-09-06T09:19:10.789Z,4.15
2022-09-06T09:21:37.134Z,3.86
2022-09-06T09:24:03.487Z,4.29
2022-09-06T09:26:29.854Z,4.05
2022-09-06T09:28:56.219Z,3.84
2022-09-06T09:31:22.625Z,3.94
2022-09-06T09:33:49.038Z,3.78
2022-09-06T09:36:15.394Z,3.54
2022-09-06T09:38:41.755Z,3.61
2022-09-06T09:41:08.167Z,3.91
2022-09-06T09:43:34.527Z,3.65
2022-09-06T09:46:00.875Z,3.67
2022-09-06T09:48:27.413Z,3.58
2022-09-06T09:50:53.879Z,3.88
2022-09-06T09:53:20.266Z,3.41
2022-09-06T09:55:46.620Z,3.54
2022-09-06T09:58:13.009Z,3.34
2022-09-06T10:00:39.402Z,3.31
2022-09-06T10:03:05.890Z,3.40
2022-09-06T10:05:32.270Z,2.96
2022-09-06T10:07:58.626Z,3.39
2022-09-06T10:10:24.990Z,3.55
2022-09-06T10:12:51.380Z,3.29
2022-09-06T10:15:17.750Z,3.27
2022-09-06T10:17:44.167Z,3.15
2022-09-06T10:20:10.538Z,3.05
2022-09-06T10:22:36.914Z,3.04
2022-09-06T10:25:03.281Z,3.20
2022-09-06T10:27:29.630Z,3.44
2022-09-06T10:29:55.976Z,3.37
2022-09-06T10:32:22.337Z,2.90
2022-09-06T10:34:48.708Z,3.34
2022-09-06T10:37:15.073Z,3.46
2022-09-06T10:39:41.493Z,3.02
2022-09-06T10:42:07.876Z,3.31
2022-09-06T10:44:34.226Z,2.91
2022-09-06T10:47:00.581Z,2.94
2022-09-06T10:49:26.949Z,2.97
2022-09-06T10:51:53.343Z,2.81
2022-09-06T10:54:19.697Z,3.09
2022-09-06T10:56:46.055Z,2.79
2022-09-06T11:01:58.938Z,3.05
2022-09-06T11:04:25.369Z,2.72
2022-09-06T11:06:51.808Z,3.26
2022-09-06T11:09:18.202Z,2.64
2022-09-06T11:11:44.584Z,2.80
2022-09-06T11:14:10.948Z,2.79
2022-09-06T11:16:37.402Z,2.45
2022-09-06T11:19:03.762Z,2.44
2022-09-06T11:21:30.121Z,3.20
2022-09-06T11:23:56.484Z,2.79
2022-09-06T11:26:22.833Z,2.52
2022-09-06T11:28:49.207Z,2.73
2022-09-06T11:34:01.909Z,2.72
2022-09-06T11:36:28.308Z,2.52
2022-09-06T11:38:54.675Z,2.54
2022-09-06T11:41:21.034Z,2.61
2022-09-06T11:43:47.407Z,2.48
2022-09-06T11:46:16.371Z,2.73
2022-09-06T11:48:46.339Z,2.50
2022-09-06T11:51:12.697Z,2.70
2022-09-06T11:53:39.069Z,2.56
2022-09-06T11:56:05.414Z,2.63
2022-09-06T11:58:31.767Z,2.75
2022-09-06T12:00:58.178Z,2.74
2022-09-06T12:06:10.881Z,2.78
2022-09-06T12:08:37.243Z,2.54
2022-09-06T12:11:03.607Z,2.60
2022-09-06T12:13:29.973Z,2.79
2022-09-06T12:15:56.385Z,2.77
2022-09-06T12:18:22.874Z,2.81
2022-09-06T12:20:49.285Z,2.70
2022-09-06T12:23:15.647Z,2.79
2022-09-06T12:25:42.027Z,2.70
2022-09-06T12:28:08.398Z,2.81
2022-09-06T12:30:34.748Z,2.94
2022-09-06T12:33:01.103Z,2.80
2022-09-06T12:38:13.822Z,2.69
2022-09-06T12:40:40.205Z,2.75
2022-09-06T12:43:06.569Z,3.05
2022-09-06T12:45:32.947Z,2.98
2022-09-06T12:47:59.323Z,3.31
2022-09-06T12:50:25.682Z,2.79
2022-09-06T12:52:52.032Z,2.64
2022-09-06T12:55:18.396Z,2.51
2022-09-06T12:57:44.746Z,2.42
2022-09-06T13:00:11.103Z,2.75
2022-09-06T13:02:37.598Z,2.65
2022-09-06T13:05:04.094Z,2.75
2022-09-06T13:07:30.461Z,2.45
2022-09-06T13:09:56.822Z,2.77
2022-09-06T13:12:23.176Z,2.72
2022-09-06T13:14:49.519Z,2.62
2022-09-06T13:17:15.886Z,2.59
2022-09-06T13:19:42.257Z,2.79
2022-09-06T13:22:08.625Z,2.60
2022-09-06T13:24:34.998Z,2.67
2022-09-06T13:27:01.358Z,2.63
2022-09-06T13:29:27.714Z,2.75
2022-09-06T13:31:56.108Z,2.84
2022-09-06T13:34:22.461Z,3.27
2022-09-06T13:36:49.012Z,3.15
2022-09-06T13:39:15.357Z,3.15
2022-09-06T13:41:41.714Z,2.60
2022-09-06T13:44:08.070Z,2.44
2022-09-06T13:46:34.487Z,2.89
2022-09-06T13:49:00.887Z,2.56
2022-09-06T13:51:27.390Z,2.37
2022-09-06T13:53:53.730Z,2.60
2022-09-06T13:56:20.105Z,2.37
2022-09-06T13:58:46.474Z,2.80
2022-09-06T14:01:12.863Z,2.49
2022-09-06T14:03:39.274Z,2.63
2022-09-06T14:06:05.896Z,2.72
2022-09-06T14:08:49.598Z,2.86
2022-09-06T14:11:18.611Z,2.69
2022-09-06T14:13:44.969Z,2.50
2022-09-06T14:16:11.446Z,2.55
2022-09-06T14:18:37.904Z,2.59
2022-09-06T14:21:04.267Z,2.45
2022-09-06T14:23:30.638Z,2.60
2022-09-06T14:25:56.999Z,2.44
2022-09-06T14:28:23.402Z,2.61
2022-09-06T14:30:49.847Z,2.63
2022-09-06T14:33:16.250Z,2.94
2022-09-06T14:35:42.600Z,2.39
2022-09-06T14:38:08.963Z,2.34
2022-09-06T14:40:35.405Z,2.45
2022-09-06T14:43:01.769Z,2.55
2022-09-06T14:45:28.131Z,2.67
2022-09-06T14:47:54.502Z,2.85
2022-09-06T14:50:20.855Z,2.61
2022-09-06T14:52:47.213Z,2.48
2022-09-06T14:55:13.576Z,2.57
2022-09-06T14:57:39.932Z,2.51
2022-09-06T15:00:06.283Z,2.58
2022-09-06T15:02:32.705Z,2.57
2022-09-06T15:04:59.105Z,2.56
2022-09-06T15:07:25.458Z,2.39
2022-09-06T15:09:51.827Z,2.37
2022-09-06T15:12:18.191Z,2.50
2022-09-06T15:14:44.531Z,2.90
2022-09-06T15:17:10.904Z,3.02
2022-09-06T15:19:37.286Z,2.61
2022-09-06T15:22:03.639Z,2.69
2022-09-06T15:24:30.008Z,2.44
2022-09-06T15:26:56.359Z,2.04
2022-09-06T15:29:22.742Z,1.92
2022-09-06T15:31:49.111Z,2.53
2022-09-06T15:34:15.506Z,2.38
2022-09-06T15:36:41.969Z,2.45
2022-09-06T15:39:08.329Z,2.58
2022-09-06T15:41:34.695Z,2.32
2022-09-06T15:44:01.072Z,2.06
2022-09-06T15:46:27.544Z,2.55
2022-09-06T15:48:53.922Z,2.03
2022-09-06T15:51:20.279Z,2.07
2022-09-06T15:53:46.804Z,2.32
2022-09-06T15:56:13.237Z,2.30
2022-09-06T15:58:39.649Z,2.19
2022-09-06T16:01:06.126Z,2.13
2022-09-06T16:03:32.568Z,2.07
2022-09-06T16:08:45.252Z,2.13
2022-09-06T16:11:11.615Z,2.21
2022-09-06T16:13:37.982Z,2.19
2022-09-06T16:16:04.327Z,2.37
2022-09-06T16:18:30.697Z,2.50
2022-09-06T16:20:57.057Z,1.96
2022-09-06T16:23:23.466Z,2.23
2022-09-06T16:25:49.824Z,2.36
2022-09-06T16:28:16.228Z,1.87
2022-09-06T16:30:42.687Z,1.91
2022-09-06T16:33:09.091Z,2.28
2022-09-06T16:35:35.541Z,2.28
2022-09-06T16:38:02.320Z,2.24
2022-09-06T16:40:28.753Z,2.33
2022-09-06T16:42:55.106Z,2.01
2022-09-06T16:45:21.454Z,2.00
2022-09-06T16:47:47.805Z,1.90
2022-09-06T16:50:14.159Z,2.46
2022-09-06T16:52:40.513Z,2.32
2022-09-06T16:55:06.866Z,2.01
2022-09-06T16:57:33.246Z,1.94
2022-09-06T16:59:59.604Z,2.13
2022-09-06T17:02:26.011Z,1.88
2022-09-06T17:04:52.387Z,2.24
2022-09-06T17:07:18.778Z,1.75
2022-09-06T17:09:45.134Z,2.10
2022-09-06T17:12:11.491Z,2.15
2022-09-06T17:14:37.858Z,2.13
2022-09-06T17:17:04.268Z,2.60
2022-09-06T17:19:30.705Z,2.11
2022-09-06T17:21:57.338Z,2.31
2022-09-06T17:24:23.703Z,2.04
2022-09-06T17:26:50.073Z,1.63
2022-09-06T17:29:16.427Z,1.73
2022-09-06T17:31:42.770Z,2.04
2022-09-06T17:34:09.123Z,2.03
2022-09-06T17:36:35.490Z,1.84
2022-09-06T17:39:01.843Z,2.06
2022-09-06T17:41:28.219Z,1.91
2022-09-06T17:43:54.594Z,1.93
2022-09-06T17:46:23.222Z,1.96
2022-09-06T17:48:51.694Z,2.05
2022-09-06T17:51:18.116Z,1.93
2022-09-06T17:53:44.471Z,2.12
2022-09-06T17:56:10.830Z,2.23
2022-09-06T17:58:37.196Z,2.54
2022-09-06T18:01:03.614Z,2.49
2022-09-06T18:03:30.010Z,2.25
2022-09-06T18:05:56.378Z,2.15
2022-09-06T18:08:22.817Z,2.25
2022-09-06T18:10:49.222Z,2.23
2022-09-06T18:13:15.584Z,2.11
2022-09-06T18:15:41.949Z,2.12
2022-09-06T18:18:08.405Z,2.09
2022-09-06T18:20:34.797Z,2.50
2022-09-06T18:23:01.191Z,2.14
2022-09-06T18:25:27.550Z,2.47
2022-09-06T18:27:53.896Z,2.15
2022-09-06T18:30:20.339Z,2.48
2022-09-06T18:32:46.699Z,2.29
2022-09-06T18:35:13.131Z,2.47
2022-09-06T18:37:39.488Z,2.63
2022-09-06T18:40:05.911Z,2.26
2022-09-06T18:42:32.323Z,2.29
2022-09-06T18:44:58.722Z,1.99
2022-09-06T18:47:25.145Z,2.29
2022-09-06T18:49:51.549Z,2.33
2022-09-06T18:52:17.912Z,2.17
2022-09-06T18:54:44.276Z,2.58
2022-09-06T18:57:10.673Z,2.64
2022-09-06T18:59:37.046Z,2.16
2022-09-06T19:02:03.548Z,2.25
2022-09-06T19:04:29.988Z,2.65
2022-09-06T19:06:56.343Z,2.66
2022-09-06T19:09:22.774Z,2.50
2022-09-06T19:11:49.224Z,2.33
2022-09-06T19:14:15.588Z,2.41
2022-09-06T19:16:42.002Z,2.29
2022-09-06T19:19:08.509Z,2.53
2022-09-06T19:21:40.766Z,2.76
2022-09-06T19:24:07.966Z,2.31
2022-09-06T19:26:34.355Z,2.19
2022-09-06T19:29:00.755Z,2.73
2022-09-06T19:31:27.218Z,5.48
2022-09-06T19:33:53.593Z,4.56
2022-09-06T19:36:19.960Z,3.75
2022-09-06T19:39:02.929Z,3.38
2022-09-06T19:41:29.732Z,4.84
2022-09-06T19:43:56.088Z,3.74
2022-09-06T19:46:22.540Z,4.03
2022-09-06T19:48:48.918Z,3.86
2022-09-06T19:51:15.324Z,3.49
2022-09-06T19:53:41.690Z,4.34
2022-09-06T19:56:08.073Z,3.96
2022-09-06T19:58:34.436Z,3.19
2022-09-06T20:01:00.900Z,6.32
2022-09-06T20:03:27.270Z,4.85
2022-09-06T20:05:53.650Z,3.63
2022-09-06T20:08:20.043Z,3.16
2022-09-06T20:10:46.411Z,2.76
2022-09-06T20:13:12.789Z,2.63
2022-09-06T20:15:39.231Z,2.78
2022-09-06T20:18:05.608Z,2.71
2022-09-06T20:20:31.983Z,2.61
2022-09-06T20:22:58.349Z,2.43
2022-09-06T20:25:24.728Z,2.76
2022-09-06T20:27:51.092Z,2.45
2022-09-06T20:30:17.471Z,2.26
2022-09-06T20:32:43.831Z,2.28
2022-09-06T20:35:10.183Z,2.44
2022-09-06T20:37:36.547Z,2.63
2022-09-06T20:40:02.956Z,2.43
2022-09-06T20:42:29.376Z,2.56
2022-09-06T20:44:55.735Z,2.68
2022-09-06T20:47:22.104Z,2.57
2022-09-06T20:49:48.459Z,2.52
2022-09-06T20:52:14.819Z,2.79
2022-09-06T20:54:41.189Z,2.37
2022-09-06T20:57:07.537Z,2.35
2022-09-06T20:59:33.908Z,3.39
2022-09-06T21:02:00.386Z,3.26
2022-09-06T21:04:26.800Z,3.62
2022-09-06T21:06:53.187Z,2.80
2022-09-06T21:09:19.558Z,2.71
2022-09-06T21:11:45.949Z,2.62
2022-09-06T21:14:12.320Z,2.59
2022-09-06T21:16:38.755Z,2.59
2022-09-06T21:19:05.166Z,3.59
2022-09-06T21:21:31.510Z,2.97
2022-09-06T21:23:57.903Z,3.37
2022-09-06T21:26:24.297Z,2.91
2022-09-06T21:28:50.655Z,2.72
2022-09-06T21:31:17.084Z,2.93
2022-09-06T21:33:43.577Z,2.91
2022-09-06T21:36:09.965Z,2.88
2022-09-06T21:38:36.368Z,2.74
2022-09-06T21:41:02.786Z,2.67
2022-09-06T21:43:29.131Z,2.78
2022-09-06T21:45:55.525Z,3.11
2022-09-06T21:48:21.936Z,3.59
2022-09-06T21:50:48.318Z,3.16
2022-09-06T21:53:14.712Z,3.62
2022-09-06T21:55:41.081Z,2.89
2022-09-06T21:58:07.620Z,3.07
2022-09-06T22:00:34.201Z,3.04
2022-09-06T22:03:00.637Z,3.00
2022-09-06T22:05:27.214Z,2.93
2022-09-06T22:07:53.571Z,2.69
2022-09-06T22:10:19.940Z,3.31
2022-09-06T22:12:46.350Z,3.02
2022-09-06T22:15:12.984Z,2.78
2022-09-06T22:17:39.356Z,3.06
2022-09-06T22:20:05.703Z,2.92
2022-09-06T22:22:32.091Z,3.22
2022-09-06T22:24:58.590Z,3.01
2022-09-06T22:27:24.986Z,2.94
2022-09-06T22:29:51.774Z,2.97
2022-09-06T22:32:18.160Z,3.09
2022-09-06T22:34:44.555Z,3.13
2022-09-06T22:37:10.951Z,2.96
2022-09-06T22:39:37.342Z,2.47
2022-09-06T22:42:03.813Z,2.55
2022-09-06T22:44:30.196Z,2.43
2022-09-06T22:46:56.632Z,2.84
2022-09-06T22:49:23.057Z,2.57
2022-09-06T22:51:49.460Z,2.78
2022-09-06T22:54:15.816Z,2.54
2022-09-06T22:56:42.182Z,2.67
2022-09-06T22:59:08.577Z,2.50
2022-09-06T23:01:34.997Z,2.38
2022-09-06T23:04:01.381Z,2.39
2022-09-06T23:06:27.792Z,2.40
2022-09-06T23:08:54.146Z,2.49
2022-09-06T23:11:20.512Z,2.45
2022-09-06T23:13:46.884Z,2.50
2022-09-06T23:16:13.322Z,2.51
2022-09-06T23:18:39.769Z,2.37
2022-09-06T23:21:06.259Z,2.14
2022-09-06T23:23:32.627Z,2.26
2022-09-06T23:25:59.060Z,2.12
2022-09-06T23:28:25.500Z,2.07
2022-09-06T23:30:51.918Z,2.51
2022-09-06T23:33:18.282Z,2.28
2022-09-06T23:35:44.626Z,2.76
2022-09-06T23:38:10.994Z,2.17
2022-09-06T23:40:37.452Z,2.22
2022-09-06T23:43:03.801Z,2.29
2022-09-06T23:45:30.162Z,2.28
2022-09-06T23:47:56.518Z,2.42
2022-09-06T23:50:22.890Z,2.16
2022-09-06T23:52:49.249Z,2.34
2022-09-06T23:55:15.637Z,2.22
2022-09-06T23:57:42.006Z,2.18
